Time;durP1;ratioP1;P1;durP2;ratioP2;P2;SDS_P1;SDS_P2;PMS_P1;PMS_P2;Temp;Humidity;BMP_temperature;BMP_pressure;BME280_temperature;BME280_humidity;BME280_pressure;Samples;Min_cycle;Max_cycle;Signal;HPM_P1;HPM_P2
2024/01/31 06:01:20;;;;;;;13.68;9.15;;;7.80;80.70;;;;;;4441363;23;20408;-77
2024/01/31 06:03:24;;;;;;;13.85;8.73;;;7.80;80.70;;;;;;4055557;29;20498;-78
2024/01/31 06:05:26;;;;;;;15.45;10.30;;;7.80;80.50;;;;;;4055624;29;20057;-78
2024/01/31 06:07:28;;;;;;;14.70;9.70;;;7.80;80.80;;;;;;4055114;29;20067;-77
2024/01/31 06:09:30;;;;;;;15.57;9.13;;;7.70;81.20;;;;;;4055801;29;20141;-79
2024/01/31 06:11:31;;;;;;;13.80;8.88;;;7.60;82.40;;;;;;4055544;29;20053;-79
2024/01/31 06:13:33;;;;;;;14.13;9.00;;;7.60;82.40;;;;;;4055229;29;20057;-77
2024/01/31 06:15:35;;;;;;;15.38;9.38;;;7.50;82.40;;;;;;4055175;29;20226;-79
2024/01/31 06:17:39;;;;;;;13.02;8.77;;;7.50;82.80;;;;;;4055489;29;20088;-78
2024/01/31 06:19:40;;;;;;;17.40;11.05;;;7.40;83.10;;;;;;4055304;29;20045;-79
2024/01/31 06:21:42;;;;;;;80.55;36.75;;;7.20;84.10;;;;;;4055222;29;20076;-77
2024/01/31 06:23:43;;;;;;;31.35;15.77;;;7.10;84.80;;;;;;4055334;29;20052;-77
2024/01/31 06:25:45;;;;;;;18.80;10.68;;;7.20;84.70;;;;;;4055286;29;20053;-78
2024/01/31 06:27:47;;;;;;;15.30;9.77;;;7.30;84.20;;;;;;4055092;29;20562;-78
2024/01/31 06:29:49;;;;;;;14.00;9.05;;;7.30;83.80;;;;;;4055152;29;20435;-78
2024/01/31 06:31:55;;;;;;;15.13;9.50;;;7.30;84.00;;;;;;4055108;29;20083;-78
2024/01/31 06:33:58;;;;;;;13.75;9.10;;;7.20;84.30;;;;;;4055161;29;20052;-78
2024/01/31 06:36:00;;;;;;;13.55;9.10;;;7.30;84.20;;;;;;4054997;29;20057;-77
2024/01/31 06:38:02;;;;;;;15.73;9.52;;;7.30;84.00;;;;;;4055037;29;20052;-78
2024/01/31 06:40:05;;;;;;;14.52;9.23;;;7.30;83.00;;;;;;4055007;29;20108;-78
2024/01/31 06:42:07;;;;;;;15.70;9.00;;;7.30;83.00;;;;;;4055116;29;20060;-77
2024/01/31 06:44:09;;;;;;;14.23;9.68;;;7.30;83.00;;;;;;4055132;29;20333;-78
2024/01/31 06:46:11;;;;;;;16.05;9.90;;;7.40;83.10;;;;;;4055075;29;20088;-78
2024/01/31 06:48:13;;;;;;;14.65;9.73;;;7.40;83.40;;;;;;4054969;29;20052;-78
2024/01/31 06:50:16;;;;;;;15.90;8.75;;;7.40;83.20;;;;;;4054803;29;20053;-77
2024/01/31 06:52:20;;;;;;;11.50;8.15;;;7.50;82.00;;;;;;4054781;29;20482;-78
2024/01/31 06:54:22;;;;;;;13.98;8.27;;;7.50;81.40;;;;;;4054797;29;20112;-79
2024/01/31 06:56:24;;;;;;;14.35;8.45;;;7.50;81.30;;;;;;4054738;29;20438;-78
2024/01/31 06:58:26;;;;;;;15.35;8.90;;;7.60;81.20;;;;;;4054775;29;20087;-77
2024/01/31 07:00:28;;;;;;;13.65;8.10;;;7.60;81.10;;;;;;4054269;29;20049;-77
2024/01/31 07:02:30;;;;;;;12.38;7.80;;;7.60;80.90;;;;;;4054755;29;20089;-78
2024/01/31 07:04:31;;;;;;;12.63;8.00;;;7.60;80.50;;;;;;4054798;29;20048;-75
2024/01/31 07:06:35;;;;;;;14.18;7.97;;;7.60;80.30;;;;;;4054590;29;20056;-76
2024/01/31 07:08:35;;;;;;;12.70;7.95;;;7.70;80.20;;;;;;4054820;29;20392;-78
2024/01/31 07:10:38;;;;;;;12.15;7.82;;;7.70;79.90;;;;;;4054480;29;20092;-77
2024/01/31 07:12:39;;;;;;;12.43;7.78;;;7.80;80.00;;;;;;4054582;29;20356;-77
2024/01/31 07:14:42;;;;;;;16.90;9.10;;;7.80;79.80;;;;;;4054555;29;20045;-78
2024/01/31 07:16:44;;;;;;;12.95;8.48;;;7.80;79.80;;;;;;4054588;29;20045;-77
2024/01/31 07:18:46;;;;;;;14.27;8.02;;;7.80;79.60;;;;;;4054778;29;20056;-78
2024/01/31 07:20:49;;;;;;;11.90;7.45;;;7.90;79.20;;;;;;4054626;29;20045;-77
2024/01/31 07:22:52;;;;;;;11.35;8.00;;;7.90;79.10;;;;;;4054464;29;20384;-77
2024/01/31 07:24:54;;;;;;;13.68;7.70;;;7.90;79.00;;;;;;4054473;29;20087;-78
2024/01/31 07:26:55;;;;;;;15.70;8.35;;;7.90;78.80;;;;;;4054350;29;20048;-78
2024/01/31 07:28:57;;;;;;;14.40;8.35;;;8.00;78.70;;;;;;4054084;29;20115;-78
2024/01/31 07:31:00;;;;;;;13.50;7.88;;;8.00;78.90;;;;;;4054320;29;20530;-78
2024/01/31 07:33:02;;;;;;;12.60;7.65;;;8.00;78.70;;;;;;4054294;29;20121;-77
2024/01/31 07:35:04;;;;;;;14.07;9.25;;;8.00;78.40;;;;;;4054547;29;20167;-78
2024/01/31 07:37:06;;;;;;;14.80;8.63;;;8.00;78.80;;;;;;4054303;29;20392;-79
2024/01/31 07:39:09;;;;;;;15.07;9.32;;;8.00;78.80;;;;;;4054283;29;20406;-78
2024/01/31 07:41:12;;;;;;;15.27;9.73;;;8.00;79.50;;;;;;4053982;29;20048;-77
2024/01/31 07:43:14;;;;;;;19.33;11.27;;;8.00;79.70;;;;;;4054085;29;20104;-77
2024/01/31 07:45:16;;;;;;;21.67;13.02;;;8.00;80.40;;;;;;4054275;29;20071;-78
2024/01/31 07:47:18;;;;;;;20.80;13.02;;;8.00;80.90;;;;;;4053774;29;20061;-78
2024/01/31 07:49:20;;;;;;;21.85;13.85;;;8.00;81.20;;;;;;4053906;29;20416;-77
2024/01/31 07:51:21;;;;;;;24.27;12.85;;;7.90;81.60;;;;;;4054218;29;20056;-79
2024/01/31 07:53:23;;;;;;;20.13;12.60;;;7.90;81.70;;;;;;4053644;29;20210;-78
2024/01/31 07:55:27;;;;;;;21.58;12.85;;;7.70;82.70;;;;;;4053962;29;20401;-78
2024/01/31 07:57:29;;;;;;;19.75;12.63;;;7.70;83.20;;;;;;4053569;29;20054;-79
2024/01/31 07:59:30;;;;;;;19.30;11.85;;;7.70;82.90;;;;;;4053960;29;20478;-78
2024/01/31 08:01:32;;;;;;;17.45;10.48;;;7.70;83.20;;;;;;4053637;29;20447;-77
2024/01/31 08:03:38;;;;;;;17.50;10.98;;;7.70;83.10;;;;;;4053681;29;20049;-79
2024/01/31 08:05:40;;;;;;;18.38;11.13;;;7.80;83.20;;;;;;4053979;29;20059;-79
2024/01/31 08:07:45;;;;;;;16.80;11.07;;;7.80;83.00;;;;;;4053761;29;20116;-77
2024/01/31 08:09:47;;;;;;;17.67;10.80;;;7.80;83.00;;;;;;4053769;29;20585;-76
2024/01/31 08:11:50;;;;;;;18.50;11.43;;;7.80;83.00;;;;;;4053029;29;20109;-78
2024/01/31 08:13:52;;;;;;;18.05;10.90;;;7.80;83.30;;;;;;4053676;29;20079;-77
2024/01/31 08:15:54;;;;;;;19.30;11.50;;;7.80;83.40;;;;;;4054783;29;20056;-77
2024/01/31 08:17:55;;;;;;;20.35;11.45;;;7.80;83.50;;;;;;4053293;29;20089;-75
2024/01/31 08:19:56;;;;;;;17.63;11.25;;;7.70;83.90;;;;;;4053697;29;20112;-77
2024/01/31 08:21:58;;;;;;;16.40;10.93;;;7.80;83.80;;;;;;4053798;29;20048;-77
2024/01/31 08:24:00;;;;;;;19.88;10.82;;;7.80;83.50;;;;;;4053641;29;20124;-79
2024/01/31 08:26:03;;;;;;;16.75;10.18;;;7.80;82.70;;;;;;4053229;29;20069;-79
2024/01/31 08:28:07;;;;;;;16.45;9.60;;;7.90;81.80;;;;;;4053216;29;20405;-78
2024/01/31 08:30:10;;;;;;;16.95;10.77;;;7.90;81.20;;;;;;4053664;29;20052;-77
2024/01/31 08:32:12;;;;;;;18.23;11.63;;;7.90;82.10;;;;;;4053566;29;20049;-77
2024/01/31 08:34:14;;;;;;;19.55;11.35;;;7.90;83.00;;;;;;4053607;29;20045;-77
2024/01/31 08:36:16;;;;;;;18.92;11.43;;;7.90;83.40;;;;;;4053629;29;20104;-77
2024/01/31 08:38:18;;;;;;;16.50;10.43;;;7.90;83.50;;;;;;4053447;29;20053;-77
2024/01/31 08:40:20;;;;;;;17.70;10.68;;;7.90;82.90;;;;;;4053643;29;20495;-79
2024/01/31 08:42:23;;;;;;;16.25;10.13;;;7.90;83.20;;;;;;4053200;29;20048;-78
2024/01/31 08:44:26;;;;;;;16.38;9.77;;;7.90;81.80;;;;;;4053561;29;20056;-78
2024/01/31 08:46:28;;;;;;;14.88;10.20;;;7.90;81.60;;;;;;4053384;29;20463;-78
2024/01/31 08:48:29;;;;;;;16.75;10.35;;;7.90;81.50;;;;;;4053438;29;20061;-78
2024/01/31 08:50:31;;;;;;;17.38;10.43;;;7.90;81.40;;;;;;4053420;29;20281;-79
2024/01/31 08:52:34;;;;;;;20.00;10.80;;;8.00;81.40;;;;;;4053451;29;20483;-77
2024/01/31 08:54:35;;;;;;;18.33;10.60;;;8.00;81.30;;;;;;4053236;29;20498;-78
2024/01/31 08:56:37;;;;;;;14.70;9.77;;;8.00;81.30;;;;;;4053142;29;20048;-77
2024/01/31 08:58:39;;;;;;;16.88;10.43;;;8.00;81.40;;;;;;4053119;29;20104;-78
2024/01/31 09:00:42;;;;;;;15.65;10.05;;;8.00;81.40;;;;;;4053250;29;20052;-78
2024/01/31 09:02:43;;;;;;;16.95;10.30;;;8.00;81.10;;;;;;4053651;29;20112;-78
2024/01/31 09:04:45;;;;;;;16.13;9.35;;;8.10;81.30;;;;;;4053184;29;20056;-78
2024/01/31 09:06:47;;;;;;;19.73;10.75;;;8.00;81.70;;;;;;4053565;29;20092;-77
2024/01/31 09:08:48;;;;;;;17.02;11.38;;;8.10;81.80;;;;;;4053534;29;20060;-77
2024/01/31 09:10:50;;;;;;;19.33;11.93;;;8.10;82.00;;;;;;4053415;29;20076;-78
2024/01/31 09:12:51;;;;;;;18.83;10.90;;;8.20;82.10;;;;;;4053287;29;20076;-79
2024/01/31 09:14:53;;;;;;;15.10;10.88;;;8.20;81.90;;;;;;4053062;29;20108;-79
2024/01/31 09:16:56;;;;;;;19.00;11.85;;;8.20;81.60;;;;;;4053282;29;20053;-77
2024/01/31 09:18:58;;;;;;;19.88;11.25;;;8.20;81.40;;;;;;4053167;29;20092;-78
2024/01/31 09:21:00;;;;;;;21.23;11.32;;;8.30;81.70;;;;;;4053084;29;20044;-79
2024/01/31 09:23:02;;;;;;;20.30;11.13;;;8.30;81.60;;;;;;4053135;29;20085;-78
2024/01/31 09:25:06;;;;;;;18.35;10.93;;;8.30;82.00;;;;;;4056192;29;20048;-78
2024/01/31 09:27:07;;;;;;;16.80;11.23;;;8.30;81.90;;;;;;4056076;29;20057;-78
2024/01/31 09:29:10;;;;;;;18.77;11.20;;;8.30;81.50;;;;;;4055817;29;20155;-78
2024/01/31 09:31:12;;;;;;;17.90;10.43;;;8.40;81.40;;;;;;4056021;29;20052;-78
2024/01/31 09:33:15;;;;;;;18.27;10.93;;;8.40;80.80;;;;;;4056000;29;20049;-78
2024/01/31 09:35:16;;;;;;;17.35;10.80;;;8.40;80.70;;;;;;4055848;29;20474;-79
2024/01/31 09:37:18;;;;;;;16.20;10.98;;;8.40;81.30;;;;;;4055727;29;20052;-78
2024/01/31 09:39:19;;;;;;;17.65;10.65;;;8.40;80.60;;;;;;4055704;29;20057;-79
2024/01/31 09:41:21;;;;;;;19.48;11.18;;;8.40;80.60;;;;;;4055766;29;20112;-79
2024/01/31 09:43:23;;;;;;;17.77;10.75;;;8.40;80.50;;;;;;4055748;29;20053;-78
2024/01/31 09:45:27;;;;;;;18.60;11.48;;;8.40;80.60;;;;;;4055878;29;20049;-80
2024/01/31 09:47:29;;;;;;;15.68;10.63;;;8.50;80.90;;;;;;4055584;29;20044;-77
2024/01/31 09:49:32;;;;;;;16.23;11.20;;;8.50;80.60;;;;;;4051876;29;20053;-78
2024/01/31 09:51:35;;;;;;;18.38;11.18;;;8.50;80.50;;;;;;4053432;29;20048;-78
2024/01/31 09:53:37;;;;;;;19.63;11.27;;;8.50;80.50;;;;;;4053017;29;20056;-77
2024/01/31 09:55:39;;;;;;;15.10;10.73;;;8.60;80.50;;;;;;4053153;29;20083;-80
2024/01/31 09:57:43;;;;;;;18.75;11.63;;;8.60;80.30;;;;;;4053237;29;20506;-77
2024/01/31 09:59:44;;;;;;;19.00;11.05;;;8.60;80.60;;;;;;4053365;29;20542;-79
2024/01/31 10:01:46;;;;;;;20.25;11.65;;;8.60;80.60;;;;;;4053092;29;20112;-79
2024/01/31 10:03:47;;;;;;;18.40;11.27;;;8.70;80.60;;;;;;4053503;29;20143;-79
2024/01/31 10:05:50;;;;;;;17.52;11.27;;;8.70;80.50;;;;;;4053280;29;20115;-77
2024/01/31 10:08:02;;;;;;;16.92;11.57;;;8.80;80.40;;;;;;4053384;29;20076;-80
2024/01/31 10:10:04;;;;;;;15.68;10.40;;;8.70;80.10;;;;;;4053401;29;20050;-77
2024/01/31 10:12:07;;;;;;;16.05;10.25;;;8.80;80.00;;;;;;4052962;29;20093;-77
2024/01/31 10:14:09;;;;;;;16.70;10.35;;;8.80;80.00;;;;;;4053207;29;20053;-78
2024/01/31 10:16:11;;;;;;;15.15;9.70;;;8.90;79.90;;;;;;4053142;29;20057;-77
2024/01/31 10:18:13;;;;;;;15.63;9.35;;;8.90;79.40;;;;;;4053581;29;20483;-76
2024/01/31 10:20:15;;;;;;;14.77;9.60;;;8.90;79.40;;;;;;4053262;29;20057;-77
2024/01/31 10:22:18;;;;;;;15.85;9.82;;;9.00;79.60;;;;;;4053086;29;20103;-79
2024/01/31 10:24:20;;;;;;;15.73;10.18;;;9.00;79.40;;;;;;4052898;29;20056;-79
2024/01/31 10:26:22;;;;;;;16.15;9.70;;;9.00;80.00;;;;;;4053238;29;20044;-78
2024/01/31 10:28:24;;;;;;;17.58;10.25;;;9.10;79.30;;;;;;4052851;29;20049;-79
2024/01/31 10:30:26;;;;;;;15.55;9.55;;;9.10;79.60;;;;;;4051507;29;20491;-79
2024/01/31 10:32:28;;;;;;;17.55;9.65;;;9.20;79.40;;;;;;4053413;29;20112;-78
2024/01/31 10:34:30;;;;;;;14.82;9.38;;;9.20;78.90;;;;;;4052683;29;20052;-78
2024/01/31 10:36:33;;;;;;;17.17;10.02;;;9.30;78.20;;;;;;4052977;29;20057;-78
2024/01/31 10:38:36;;;;;;;16.42;9.15;;;9.30;78.10;;;;;;4053477;29;20056;-77
2024/01/31 10:40:40;;;;;;;13.90;8.82;;;9.30;77.90;;;;;;4053237;29;20128;-78
2024/01/31 10:42:44;;;;;;;14.05;8.07;;;9.30;76.80;;;;;;4052894;29;20052;-77
2024/01/31 10:44:47;;;;;;;14.07;8.38;;;9.30;76.40;;;;;;4052628;29;20108;-77
2024/01/31 10:46:49;;;;;;;14.52;8.77;;;9.40;76.50;;;;;;4052920;29;20052;-75
2024/01/31 10:48:51;;;;;;;13.70;8.18;;;9.40;76.30;;;;;;4052382;29;20057;-78
2024/01/31 10:50:54;;;;;;;13.02;8.23;;;9.30;75.90;;;;;;4052767;29;20526;-79
2024/01/31 10:52:57;;;;;;;14.00;7.65;;;9.40;76.30;;;;;;4052729;29;20087;-78
2024/01/31 10:55:03;;;;;;;15.40;8.48;;;9.40;76.40;;;;;;4052700;29;20053;-79
2024/01/31 10:57:07;;;;;;;12.10;8.10;;;9.50;76.50;;;;;;4052414;29;20056;-78
2024/01/31 10:59:09;;;;;;;11.38;7.70;;;9.50;76.50;;;;;;4052462;29;20064;-78
2024/01/31 11:01:15;;;;;;;12.15;7.65;;;9.50;75.90;;;;;;4052049;29;20053;-78
2024/01/31 11:03:18;;;;;;;;;;;9.50;75.50;;;;;;4053338;29;20056;-79
2024/01/31 11:05:20;;;;;;;12.05;7.45;;;9.60;75.70;;;;;;4052922;29;20009;-78
2024/01/31 11:07:22;;;;;;;12.20;7.85;;;9.60;75.50;;;;;;4052650;29;20045;-79
2024/01/31 11:09:26;;;;;;;10.63;7.10;;;9.70;75.40;;;;;;4052371;29;20108;-79
2024/01/31 11:11:29;;;;;;;13.05;7.32;;;9.70;75.60;;;;;;4052627;29;20057;-79
2024/01/31 11:13:31;;;;;;;13.77;7.28;;;9.60;75.20;;;;;;4052337;29;20059;-76
2024/01/31 11:15:34;;;;;;;14.18;7.88;;;9.70;75.30;;;;;;4052379;29;20105;-77
2024/01/31 11:17:38;;;;;;;13.15;8.13;;;9.80;75.10;;;;;;4052299;29;20056;-79
2024/01/31 11:19:46;;;;;;;11.32;7.35;;;9.70;74.90;;;;;;4051519;29;20048;-79
2024/01/31 11:21:48;;;;;;;11.88;7.15;;;9.80;74.90;;;;;;4049257;29;20080;-80
2024/01/31 11:23:49;;;;;;;11.77;7.65;;;9.80;75.10;;;;;;4052225;29;20064;-79
2024/01/31 11:25:51;;;;;;;12.27;7.53;;;9.80;75.10;;;;;;4052019;29;20479;-79
2024/01/31 11:27:55;;;;;;;12.02;7.60;;;9.80;74.90;;;;;;4052211;29;20415;-79
2024/01/31 11:29:57;;;;;;;15.23;7.55;;;9.80;75.50;;;;;;4052279;29;20455;-78
2024/01/31 11:32:00;;;;;;;10.52;6.75;;;9.80;75.40;;;;;;4051091;29;20476;-79
2024/01/31 11:34:01;;;;;;;13.05;7.03;;;9.80;75.30;;;;;;4052051;29;20131;-78
2024/01/31 11:36:04;;;;;;;13.43;6.68;;;9.90;75.20;;;;;;4051787;29;20053;-78
2024/01/31 11:38:08;;;;;;;12.85;7.55;;;10.00;74.90;;;;;;4052213;29;20107;-79
2024/01/31 11:40:11;;;;;;;12.48;7.03;;;9.90;74.70;;;;;;4051898;29;20055;-78
2024/01/31 11:42:14;;;;;;;12.35;6.93;;;9.90;74.50;;;;;;4051878;29;20121;-77
2024/01/31 11:44:17;;;;;;;14.30;7.50;;;10.00;74.60;;;;;;4051906;29;20062;-80
2024/01/31 11:46:19;;;;;;;12.20;7.45;;;10.10;74.30;;;;;;4051717;29;20056;-77
2024/01/31 11:48:22;;;;;;;10.95;7.65;;;10.10;74.20;;;;;;4051490;29;20048;-79
2024/01/31 11:50:26;;;;;;;14.23;7.80;;;10.10;73.90;;;;;;4052372;29;20052;-78
2024/01/31 11:52:27;;;;;;;10.80;7.13;;;10.10;74.00;;;;;;4052811;29;20100;-79
2024/01/31 11:54:29;;;;;;;12.02;7.50;;;10.10;73.80;;;;;;4051739;29;20048;-78
2024/01/31 11:56:30;;;;;;;12.15;7.53;;;10.20;73.70;;;;;;4051761;29;20059;-77
2024/01/31 11:58:32;;;;;;;12.40;6.95;;;10.20;73.80;;;;;;4051828;29;20143;-79
2024/01/31 12:00:36;;;;;;;11.52;7.55;;;10.20;73.70;;;;;;4051231;29;20130;-79
2024/01/31 12:02:37;;;;;;;12.90;7.32;;;10.20;73.60;;;;;;4051630;29;20116;-78
2024/01/31 12:04:39;;;;;;;13.00;6.97;;;10.20;73.50;;;;;;4051734;29;20485;-79
2024/01/31 12:06:41;;;;;;;12.07;6.90;;;10.20;73.70;;;;;;4051588;29;20056;-80
2024/01/31 12:08:46;;;;;;;11.93;7.45;;;10.20;73.80;;;;;;4051377;29;20104;-79
2024/01/31 12:10:50;;;;;;;11.07;7.13;;;10.30;74.00;;;;;;4051693;29;20062;-78
2024/01/31 12:12:52;;;;;;;12.90;7.28;;;10.30;73.80;;;;;;4051124;29;20459;-80
2024/01/31 12:14:56;;;;;;;51.28;29.42;;;10.30;73.70;;;;;;4051617;29;20054;-79
2024/01/31 12:16:59;;;;;;;16.55;7.70;;;10.30;73.70;;;;;;4051631;29;20104;-79
2024/01/31 12:19:00;;;;;;;15.85;9.95;;;10.30;73.80;;;;;;4051731;29;20104;-79
2024/01/31 12:21:03;;;;;;;15.30;8.50;;;10.40;73.80;;;;;;4051468;29;20063;-78
2024/01/31 12:23:05;;;;;;;11.73;7.65;;;10.40;73.60;;;;;;4051839;29;20056;-78
2024/01/31 12:25:09;;;;;;;12.07;7.18;;;10.50;73.30;;;;;;4051687;29;20120;-78
2024/01/31 12:27:11;;;;;;;14.70;7.82;;;10.50;73.20;;;;;;4051563;29;20559;-78
2024/01/31 12:29:13;;;;;;;13.00;7.13;;;10.50;73.30;;;;;;4051665;29;20049;-77
2024/01/31 12:31:15;;;;;;;11.05;7.20;;;10.50;73.20;;;;;;4049353;29;20479;-78
2024/01/31 12:33:17;;;;;;;13.15;7.35;;;10.50;73.50;;;;;;4051453;29;20108;-78
2024/01/31 12:35:19;;;;;;;13.55;7.07;;;10.60;73.40;;;;;;4051384;29;20059;-79
2024/01/31 12:37:21;;;;;;;14.05;7.35;;;10.70;73.20;;;;;;4051021;29;20562;-79
2024/01/31 12:39:22;;;;;;;9.93;6.80;;;10.70;72.80;;;;;;4051508;29;20463;-77
2024/01/31 12:41:24;;;;;;;12.55;6.90;;;10.70;73.00;;;;;;4051377;29;20053;-80
2024/01/31 12:43:26;;;;;;;10.48;6.68;;;10.70;73.30;;;;;;4051823;29;20487;-78
2024/01/31 12:45:28;;;;;;;12.85;6.70;;;10.80;73.30;;;;;;4051328;29;20053;-77
2024/01/31 12:47:29;;;;;;;11.68;6.72;;;10.80;73.20;;;;;;4051609;29;20061;-80
2024/01/31 12:49:33;;;;;;;14.40;7.28;;;10.80;72.90;;;;;;4050892;29;20063;-79
2024/01/31 12:51:33;;;;;;;13.20;7.00;;;10.90;72.90;;;;;;4051522;29;20476;-79
2024/01/31 12:53:35;;;;;;;14.85;7.15;;;10.90;72.80;;;;;;4051465;29;20136;-79
2024/01/31 12:55:36;;;;;;;11.32;6.90;;;11.00;72.80;;;;;;4051176;29;20060;-79
2024/01/31 12:57:38;;;;;;;11.65;7.20;;;11.00;72.60;;;;;;4049835;29;20052;-77
2024/01/31 12:59:40;;;;;;;12.75;7.88;;;11.00;72.40;;;;;;4053745;29;20064;-79
2024/01/31 13:01:42;;;;;;;12.57;7.43;;;11.10;72.20;;;;;;4053554;29;20414;-79
2024/01/31 13:03:44;;;;;;;14.25;7.63;;;11.10;72.40;;;;;;4054402;29;20048;-75
2024/01/31 13:05:47;;;;;;;10.30;6.82;;;11.10;72.50;;;;;;4054362;29;20040;-77
2024/01/31 13:07:49;;;;;;;14.48;7.68;;;11.20;72.10;;;;;;4054615;29;20052;-77
2024/01/31 13:09:51;;;;;;;14.13;7.60;;;11.20;72.10;;;;;;4053749;29;20645;-77
2024/01/31 13:11:52;;;;;;;11.63;7.20;;;11.30;72.00;;;;;;4054006;29;20539;-79
2024/01/31 13:13:53;;;;;;;13.02;7.28;;;11.40;71.70;;;;;;4054032;29;20139;-77
2024/01/31 13:15:55;;;;;;;11.82;7.28;;;11.40;71.70;;;;;;4055002;29;20404;-76
2024/01/31 13:17:57;;;;;;;11.52;7.53;;;11.60;71.80;;;;;;4053918;29;20087;-75
2024/01/31 13:20:01;;;;;;;12.77;7.40;;;11.60;71.90;;;;;;4053956;29;20084;-76
2024/01/31 13:22:04;;;;;;;11.50;7.57;;;11.70;71.50;;;;;;4053755;29;20056;-78
2024/01/31 13:24:05;;;;;;;14.82;8.02;;;11.70;71.10;;;;;;4053467;29;20057;-78
2024/01/31 13:26:08;;;;;;;13.05;8.95;;;11.60;71.40;;;;;;4053458;29;20061;-79
2024/01/31 13:28:10;;;;;;;18.67;9.07;;;11.50;71.40;;;;;;4053737;29;20052;-79
2024/01/31 13:30:13;;;;;;;15.10;8.52;;;11.40;71.40;;;;;;4051584;29;20096;-79
2024/01/31 13:32:15;;;;;;;14.70;9.30;;;11.40;71.40;;;;;;4054416;29;20063;-80
2024/01/31 13:34:17;;;;;;;17.10;8.68;;;11.30;71.20;;;;;;4054195;29;20064;-79
2024/01/31 13:36:20;;;;;;;16.27;9.13;;;11.20;71.70;;;;;;4053945;29;20052;-79
2024/01/31 13:38:23;;;;;;;15.88;9.07;;;11.20;72.00;;;;;;4053973;29;20092;-78
2024/01/31 13:40:25;;;;;;;23.40;9.88;;;11.20;72.20;;;;;;4052960;29;20540;-77
2024/01/31 13:42:27;;;;;;;16.55;9.25;;;11.20;72.60;;;;;;4053119;29;20127;-79
2024/01/31 13:44:29;;;;;;;20.02;10.88;;;11.20;72.60;;;;;;4052731;29;20111;-80
2024/01/31 13:46:31;;;;;;;17.05;9.77;;;11.20;72.20;;;;;;4053960;29;20459;-79
2024/01/31 13:48:33;;;;;;;16.13;9.30;;;11.20;72.40;;;;;;4054023;29;20061;-78
2024/01/31 13:50:34;;;;;;;13.90;9.13;;;11.20;72.70;;;;;;4053553;29;20068;-79
2024/01/31 13:52:37;;;;;;;16.15;9.55;;;11.20;73.20;;;;;;4053846;29;20230;-79
2024/01/31 13:54:40;;;;;;;13.23;8.75;;;11.20;73.20;;;;;;4053867;29;20056;-79
2024/01/31 13:56:43;;;;;;;18.15;10.63;;;11.20;73.20;;;;;;4053776;29;20487;-77
2024/01/31 13:58:45;;;;;;;16.15;10.38;;;11.20;73.10;;;;;;4053897;29;20058;-79
2024/01/31 14:00:47;;;;;;;16.10;9.85;;;11.20;73.20;;;;;;4053108;29;20096;-80
2024/01/31 14:02:49;;;;;;;19.70;9.80;;;11.20;73.00;;;;;;4053954;29;20108;-79
2024/01/31 14:04:51;;;;;;;16.75;10.10;;;11.20;73.30;;;;;;4054902;29;20052;-79
2024/01/31 14:06:53;;;;;;;17.02;9.63;;;11.20;73.30;;;;;;4054055;29;20554;-78
2024/01/31 14:08:55;;;;;;;17.20;10.27;;;11.20;73.20;;;;;;4053539;29;20498;-80
2024/01/31 14:10:58;;;;;;;16.65;10.55;;;11.20;73.40;;;;;;4052537;29;20052;-78
2024/01/31 14:13:00;;;;;;;17.65;11.20;;;11.20;73.50;;;;;;4053206;29;20642;-79
2024/01/31 14:15:01;;;;;;;26.75;16.73;;;11.20;73.40;;;;;;4053317;29;20060;-79
2024/01/31 14:17:03;;;;;;;17.60;11.10;;;11.10;73.50;;;;;;4053470;29;20048;-78
2024/01/31 14:19:05;;;;;;;17.13;10.27;;;11.10;73.60;;;;;;4053790;29;20139;-79
2024/01/31 14:21:08;;;;;;;19.52;10.80;;;11.10;73.40;;;;;;4053047;29;20053;-79
2024/01/31 14:23:10;;;;;;;17.42;10.85;;;11.00;73.20;;;;;;4053537;29;20101;-78
2024/01/31 14:25:12;;;;;;;18.88;11.10;;;11.00;73.20;;;;;;4053140;29;20105;-78
2024/01/31 14:27:15;;;;;;;17.27;10.93;;;11.00;73.30;;;;;;4053234;29;20112;-79
2024/01/31 14:29:17;;;;;;;19.52;10.75;;;11.00;73.40;;;;;;4052987;29;20048;-80
2024/01/31 14:31:19;;;;;;;16.80;9.82;;;11.10;73.40;;;;;;4050869;29;20056;-78
2024/01/31 14:33:20;;;;;;;14.65;9.50;;;11.10;73.10;;;;;;4052954;29;20653;-79
2024/01/31 14:35:22;;;;;;;18.02;10.50;;;11.10;72.80;;;;;;4053046;29;20052;-78
2024/01/31 14:37:24;;;;;;;16.63;9.82;;;11.10;73.00;;;;;;4053033;29;20052;-79
2024/01/31 14:39:27;;;;;;;17.70;9.98;;;11.20;73.00;;;;;;4052869;29;20072;-78
2024/01/31 14:41:28;;;;;;;14.85;9.50;;;11.20;72.80;;;;;;4053246;29;20052;-77
2024/01/31 14:43:33;;;;;;;18.50;10.98;;;11.30;72.90;;;;;;4052963;29;20055;-78
2024/01/31 14:45:34;;;;;;;14.77;10.13;;;11.30;72.40;;;;;;4052917;29;20501;-78
2024/01/31 14:47:36;;;;;;;13.77;9.27;;;11.40;72.50;;;;;;4052718;29;20100;-78
2024/01/31 14:49:38;;;;;;;15.50;9.20;;;11.50;72.30;;;;;;4052557;29;20052;-78
2024/01/31 14:51:39;;;;;;;14.90;8.80;;;11.60;71.70;;;;;;4052913;29;20057;-79
2024/01/31 14:53:41;;;;;;;13.10;8.80;;;11.90;70.70;;;;;;4053110;29;20132;-79
2024/01/31 14:55:42;;;;;;;14.05;8.65;;;12.10;69.80;;;;;;4052904;29;20053;-78
2024/01/31 14:57:44;;;;;;;14.48;9.15;;;12.30;69.00;;;;;;4052676;29;20462;-77
2024/01/31 14:59:47;;;;;;;16.05;9.50;;;12.40;68.50;;;;;;4052391;29;20056;-78
2024/01/31 15:01:50;;;;;;;15.75;9.77;;;12.50;68.10;;;;;;4052292;29;20578;-78
2024/01/31 15:03:52;;;;;;;14.48;9.85;;;12.90;66.70;;;;;;4052633;29;20055;-80
2024/01/31 15:05:54;;;;;;;15.38;10.48;;;14.70;62.90;;;;;;4052646;29;20483;-79
2024/01/31 15:07:55;;;;;;;17.40;11.02;;;15.00;60.70;;;;;;4052385;29;20108;-79
2024/01/31 15:09:56;;;;;;;15.90;9.73;;;16.60;58.50;;;;;;4052610;29;20040;-78
2024/01/31 15:11:59;;;;;;;16.05;9.15;;;15.80;57.20;;;;;;4053167;29;20048;-77
2024/01/31 15:14:03;;;;;;;15.93;9.50;;;15.30;57.70;;;;;;4052910;29;20132;-78
2024/01/31 15:16:13;;;;;;;15.50;8.80;;;15.30;58.60;;;;;;4052648;29;20403;-80
2024/01/31 15:18:16;;;;;;;16.05;9.20;;;15.00;58.30;;;;;;4052234;29;20559;-78
2024/01/31 15:20:18;;;;;;;14.23;8.73;;;14.60;59.00;;;;;;4052561;29;20064;-80
2024/01/31 15:22:18;;;;;;;12.93;8.60;;;14.50;59.60;;;;;;4052278;29;20052;-77
2024/01/31 15:24:20;;;;;;;15.27;9.00;;;14.50;59.30;;;;;;4052041;29;20447;-80
2024/01/31 15:26:22;;;;;;;16.77;9.50;;;14.90;59.00;;;;;;4052287;29;20048;-79
2024/01/31 15:28:24;;;;;;;14.45;8.45;;;14.80;58.70;;;;;;4052376;29;20482;-79
2024/01/31 15:30:26;;;;;;;15.23;9.18;;;14.70;58.80;;;;;;4049820;29;20052;-79
2024/01/31 15:32:29;;;;;;;15.32;8.98;;;14.30;59.50;;;;;;4052193;29;20060;-80
2024/01/31 15:34:31;;;;;;;14.32;8.70;;;14.00;60.30;;;;;;4052501;29;20083;-76
2024/01/31 15:36:32;;;;;;;15.38;8.60;;;13.90;60.30;;;;;;4052163;29;20052;-78
2024/01/31 15:38:33;;;;;;;12.88;8.18;;;13.60;61.60;;;;;;4051882;29;20060;-80
2024/01/31 15:40:35;;;;;;;13.48;8.68;;;13.40;62.30;;;;;;4052038;29;20052;-77
2024/01/31 15:42:37;;;;;;;17.88;8.82;;;13.30;62.80;;;;;;4052270;29;20101;-79
2024/01/31 15:44:39;;;;;;;12.93;8.48;;;13.40;62.90;;;;;;4051740;29;20120;-79
2024/01/31 15:46:41;;;;;;;12.52;8.30;;;13.50;61.90;;;;;;4052129;29;20052;-76
2024/01/31 15:48:44;;;;;;;12.98;7.95;;;13.40;62.00;;;;;;4052263;29;20052;-79
2024/01/31 15:50:46;;;;;;;14.48;8.85;;;13.10;62.80;;;;;;4050436;29;20052;-78
2024/01/31 15:52:48;;;;;;;15.52;8.07;;;12.90;63.80;;;;;;4052079;29;20104;-77
2024/01/31 15:54:49;;;;;;;12.70;8.02;;;12.70;64.60;;;;;;4052082;29;20455;-79
2024/01/31 15:56:52;;;;;;;15.43;7.93;;;12.40;65.40;;;;;;4051690;29;20112;-78
2024/01/31 15:58:53;;;;;;;12.23;7.75;;;12.20;66.10;;;;;;4051497;29;20131;-78
2024/01/31 16:00:54;;;;;;;16.98;8.20;;;12.10;66.80;;;;;;4051896;29;20089;-79
2024/01/31 16:02:57;;;;;;;14.40;8.30;;;11.90;67.30;;;;;;4052324;29;20462;-80
2024/01/31 16:05:00;;;;;;;15.32;8.32;;;11.70;68.00;;;;;;4051559;29;20049;-80
2024/01/31 16:07:02;;;;;;;15.02;8.48;;;11.60;68.70;;;;;;4052508;29;20059;-80
2024/01/31 16:09:05;;;;;;;17.77;8.30;;;11.50;69.80;;;;;;4051694;29;20087;-79
2024/01/31 16:11:07;;;;;;;12.02;8.07;;;11.30;70.20;;;;;;4051973;29;20483;-79
2024/01/31 16:13:08;;;;;;;15.18;8.25;;;11.20;70.50;;;;;;4051446;29;20489;-79
2024/01/31 16:15:10;;;;;;;16.20;8.40;;;11.20;70.70;;;;;;4051274;29;20116;-79
2024/01/31 16:17:12;;;;;;;15.02;7.70;;;11.20;70.90;;;;;;4051932;29;20135;-79
2024/01/31 16:19:15;;;;;;;17.50;8.45;;;11.10;71.70;;;;;;4051797;29;20131;-78
2024/01/31 16:21:19;;;;;;;14.50;8.50;;;11.10;71.20;;;;;;4051533;29;20065;-78
2024/01/31 16:23:22;;;;;;;16.20;8.15;;;11.00;71.50;;;;;;4051804;29;20089;-79
2024/01/31 16:25:24;;;;;;;13.27;8.20;;;11.00;71.80;;;;;;4051070;29;20052;-79
2024/01/31 16:27:26;;;;;;;14.48;7.88;;;10.90;72.00;;;;;;4051537;29;20087;-80
2024/01/31 16:29:28;;;;;;;13.20;7.75;;;10.90;72.40;;;;;;4051246;29;20052;-78